Time;durP1;ratioP1;P1;durP2;ratioP2;P2;SDS_P1;SDS_P2;PMS_P1;PMS_P2;Temp;Humidity;BMP_temperature;BMP_pressure;BME280_temperature;BME280_humidity;BME280_pressure;Samples;Min_cycle;Max_cycle;Signal;HPM_P1;HPM_P2
2022/01/30 00:01:48;;;;;;;2.63;1.50;;;;;;;4.39;100.00;97811.38;5001359;28;20458;-65
2022/01/30 00:04:14;;;;;;;3.05;1.70;;;;;;;4.40;100.00;97808.34;4995497;28;20044;-66
2022/01/30 00:06:40;;;;;;;3.55;1.40;;;;;;;4.47;100.00;97799.03;4999218;28;20041;-65
2022/01/30 00:09:09;;;;;;;3.47;1.30;;;;;;;4.50;100.00;97790.28;4996155;28;20045;-64
2022/01/30 00:11:38;;;;;;;2.22;1.23;;;;;;;4.53;100.00;97797.81;5015089;28;20045;-64
2022/01/30 00:14:05;;;;;;;1.90;1.30;;;;;;;4.47;100.00;97796.31;4996556;28;20046;-60
2022/01/30 00:16:35;;;;;;;1.60;1.23;;;;;;;4.59;100.00;97792.00;5000397;28;20069;-65
2022/01/30 00:19:14;;;;;;;2.35;1.35;;;;;;;4.60;100.00;97800.94;4996754;28;20042;-65
2022/01/30 00:21:45;;;;;;;8.07;4.00;;;;;;;4.54;100.00;97792.09;4995766;28;20049;-65
2022/01/30 00:24:21;;;;;;;4.75;2.60;;;;;;;4.51;100.00;97789.19;4995253;28;20054;-65
2022/01/30 00:26:47;;;;;;;1.40;1.20;;;;;;;4.51;100.00;97789.97;4998755;28;20048;-65
2022/01/30 00:29:13;;;;;;;1.20;0.90;;;;;;;4.55;100.00;97784.75;4996256;28;20038;-65
2022/01/30 00:31:39;;;;;;;1.15;1.00;;;;;;;4.54;100.00;97785.88;5000791;28;20450;-67
2022/01/30 00:34:05;;;;;;;2.38;1.30;;;;;;;4.58;100.00;97787.69;4999122;28;20053;-64
2022/01/30 00:36:31;;;;;;;1.80;1.00;;;;;;;4.51;100.00;97784.56;5002961;28;20045;-66
2022/01/30 00:38:57;;;;;;;2.15;1.02;;;;;;;4.53;100.00;97786.97;4998136;28;20050;-66
2022/01/30 00:41:23;;;;;;;1.60;0.98;;;;;;;4.52;100.00;97775.31;4993015;28;20693;-66
2022/01/30 00:43:49;;;;;;;1.63;1.02;;;;;;;4.54;100.00;97767.69;4999029;28;20046;-66
2022/01/30 00:46:14;;;;;;;2.17;1.10;;;;;;;4.55;100.00;97771.19;4993216;28;20041;-65
2022/01/30 00:48:40;;;;;;;3.17;1.30;;;;;;;4.51;100.00;97772.91;4998764;28;20046;-66
2022/01/30 00:51:05;;;;;;;1.05;0.88;;;;;;;4.53;100.00;97767.97;4991328;28;20169;-63
2022/01/30 00:53:30;;;;;;;16.70;8.02;;;;;;;4.50;100.00;97769.41;4999572;28;20462;-63
2022/01/30 00:55:56;;;;;;;16.05;7.40;;;;;;;4.53;100.00;97779.63;4998620;28;20133;-65
2022/01/30 00:58:21;;;;;;;2.22;1.13;;;;;;;4.56;100.00;97789.91;4992944;28;20104;-65
2022/01/30 01:00:47;;;;;;;1.83;1.30;;;;;;;4.54;100.00;97794.81;5000808;28;20049;-65
2022/01/30 01:03:12;;;;;;;2.03;1.45;;;;;;;4.59;100.00;97789.31;4993663;28;20037;-62
2022/01/30 01:05:38;;;;;;;1.08;0.93;;;;;;;4.57;100.00;97779.84;5000074;28;20518;-65
2022/01/30 01:08:50;;;;;;;3.97;1.30;;;;;;;4.56;100.00;97778.25;4995169;28;20398;-61
2022/01/30 01:11:01;;;;;;;1.20;0.90;;;;;;;4.51;100.00;97776.41;5002982;28;20042;-65
2022/01/30 01:23:56;;;;;;;1.40;1.00;;;;;;;4.51;100.00;97778.34;4998363;28;20154;-65
2022/01/30 01:26:24;;;;;;;2.97;1.08;;;;;;;4.50;100.00;97776.72;4992635;28;20119;-66
2022/01/30 01:28:49;;;;;;;1.65;1.13;;;;;;;4.54;100.00;97781.25;5001946;28;20503;-66
2022/01/30 01:31:15;;;;;;;1.80;1.17;;;;;;;4.56;100.00;97792.59;4994136;28;20127;-66
2022/01/30 01:36:06;;;;;;;1.70;1.00;;;;;;;4.60;100.00;97793.59;4997852;28;20060;-63
2022/01/30 01:38:32;;;;;;;1.50;1.20;;;;;;;4.62;100.00;97779.75;4998245;28;20101;-66
2022/01/30 01:40:58;;;;;;;1.88;1.30;;;;;;;4.68;100.00;97780.44;5000332;28;20045;-68
2022/01/30 01:43:24;;;;;;;2.30;1.33;;;;;;;4.69;100.00;97774.72;5003843;28;20107;-65
2022/01/30 01:45:53;;;;;;;1.83;1.30;;;;;;;4.77;100.00;97778.63;4997675;28;20044;-66
2022/01/30 01:48:18;;;;;;;2.17;1.42;;;;;;;4.78;100.00;97762.03;4993216;28;20044;-65
2022/01/30 01:50:53;;;;;;;2.92;1.60;;;;;;;4.79;100.00;97765.59;4999813;28;20125;-64
2022/01/30 01:53:22;;;;;;;3.45;1.58;;;;;;;4.79;100.00;97768.31;4995356;28;20042;-65
2022/01/30 01:55:47;;;;;;;3.03;1.77;;;;;;;4.74;100.00;97763.75;5002512;28;20059;-65
2022/01/30 01:58:13;;;;;;;2.70;1.60;;;;;;;4.77;100.00;97752.31;4997936;28;20490;-65
2022/01/30 02:00:39;;;;;;;3.55;2.15;;;;;;;4.75;100.00;97762.66;5001443;28;20047;-64
2022/01/30 02:03:05;;;;;;;4.32;1.95;;;;;;;4.79;100.00;97766.38;4996799;28;20045;-62
2022/01/30 02:05:34;;;;;;;4.00;1.80;;;;;;;4.81;100.00;97762.53;5002379;28;20045;-65
2022/01/30 02:08:47;;;;;;;3.65;1.98;;;;;;;4.79;100.00;97755.53;5006038;28;20041;-65
2022/01/30 02:24:20;;;;;;;5.53;2.45;;;;;;;4.83;100.00;97754.94;5006830;28;20103;-65
2022/01/30 02:26:47;;;;;;;3.63;1.80;;;;;;;4.81;100.00;97757.94;5022064;28;20040;-64
2022/01/30 02:29:13;;;;;;;3.40;2.00;;;;;;;4.83;100.00;97749.50;5012541;28;20046;-65
2022/01/30 02:31:41;;;;;;;2.90;1.80;;;;;;;4.83;100.00;97735.94;5027365;28;20042;-67
2022/01/30 02:34:07;;;;;;;4.43;2.00;;;;;;;4.80;100.00;97731.88;5023340;28;20494;-65
2022/01/30 02:36:44;;;;;;;3.35;1.70;;;;;;;4.79;100.00;97735.72;5020258;28;20046;-65
2022/01/30 02:39:10;;;;;;;3.85;2.00;;;;;;;4.78;100.00;97721.34;5012340;28;20172;-65
2022/01/30 02:41:37;;;;;;;4.32;2.10;;;;;;;4.77;100.00;97713.50;5001467;28;20486;-66
2022/01/30 02:46:50;;;;;;;4.13;2.33;;;;;;;4.81;100.00;97709.09;5001795;28;20514;-65
2022/01/30 02:52:10;;;;;;;3.72;2.63;;;;;;;4.76;100.00;97703.75;5002324;28;20057;-64
2022/01/30 02:54:34;;;;;;;5.68;2.35;;;;;;;4.75;100.00;97708.38;5001108;28;20045;-66
2022/01/30 02:56:59;;;;;;;3.30;2.15;;;;;;;4.73;100.00;97707.88;5001013;28;20491;-66
2022/01/30 02:59:26;;;;;;;5.57;2.40;;;;;;;4.75;100.00;97721.13;4996914;28;20376;-64
2022/01/30 03:01:51;;;;;;;4.10;2.13;;;;;;;4.75;100.00;97707.56;5002250;28;20049;-64
2022/01/30 03:04:17;;;;;;;6.40;2.45;;;;;;;4.76;100.00;97707.25;4997453;28;20038;-65
2022/01/30 03:06:44;;;;;;;4.55;2.55;;;;;;;4.77;100.00;97702.63;5040479;28;20608;-66
2022/01/30 03:09:10;;;;;;;4.38;2.25;;;;;;;4.71;100.00;97698.44;4999218;28;20046;-65
2022/01/30 03:11:36;;;;;;;7.85;3.95;;;;;;;4.71;100.00;97699.22;4995452;28;20539;-65
2022/01/30 03:14:02;;;;;;;4.25;2.60;;;;;;;4.68;100.00;97691.72;5001908;28;20057;-66
2022/01/30 03:16:27;;;;;;;5.57;2.92;;;;;;;4.65;100.00;97695.03;4998586;28;20057;-65
2022/01/30 03:18:53;;;;;;;6.72;2.90;;;;;;;4.69;100.00;97711.50;5016520;22;20050;-68
2022/01/30 03:21:19;;;;;;;3.78;2.05;;;;;;;4.65;100.00;97708.59;4978679;28;20150;-66
2022/01/30 03:23:45;;;;;;;3.85;2.00;;;;;;;4.72;100.00;97702.75;5006857;28;20146;-66
2022/01/30 03:26:12;;;;;;;4.05;2.42;;;;;;;4.67;100.00;97711.00;5014214;28;20096;-66
2022/01/30 03:28:40;;;;;;;4.13;1.98;;;;;;;4.67;100.00;97702.88;5010306;28;20056;-66
2022/01/30 03:31:08;;;;;;;3.17;1.80;;;;;;;4.70;100.00;97699.53;4994748;28;20049;-67
2022/01/30 03:33:34;;;;;;;4.75;2.35;;;;;;;4.69;100.00;97706.88;4997169;28;20133;-66
2022/01/30 03:36:00;;;;;;;4.03;2.10;;;;;;;4.76;100.00;97712.69;4958047;28;20884;-66
2022/01/30 03:38:26;;;;;;;3.25;1.75;;;;;;;4.75;100.00;97718.41;4989499;28;20050;-66
2022/01/30 03:40:52;;;;;;;3.38;2.10;;;;;;;4.73;100.00;97724.16;4995001;28;20045;-66
2022/01/30 03:43:18;;;;;;;3.00;1.63;;;;;;;4.74;100.00;97730.41;4984404;28;20057;-65
2022/01/30 03:45:45;;;;;;;2.05;1.55;;;;;;;4.75;100.00;97727.38;4993210;28;20068;-64
2022/01/30 03:48:10;;;;;;;2.38;1.60;;;;;;;4.75;100.00;97730.09;4974673;28;20105;-66
2022/01/30 03:50:36;;;;;;;3.03;1.55;;;;;;;4.76;100.00;97723.56;4978169;28;20125;-66
2022/01/30 03:53:02;;;;;;;2.22;1.40;;;;;;;4.73;100.00;97724.16;4995810;28;20048;-66
2022/01/30 03:55:28;;;;;;;3.15;1.40;;;;;;;4.77;100.00;97713.50;4962947;28;20054;-65
2022/01/30 03:57:54;;;;;;;1.90;1.40;;;;;;;4.75;100.00;97723.84;5001108;28;20125;-64
2022/01/30 04:00:19;;;;;;;3.60;1.50;;;;;;;4.70;100.00;97715.81;4991582;28;20046;-65
2022/01/30 04:02:45;;;;;;;1.92;1.10;;;;;;;4.78;100.00;97713.19;4986319;28;20407;-64
2022/01/30 04:05:11;;;;;;;1.50;1.02;;;;;;;4.75;100.00;97729.28;4953949;28;20060;-65
2022/01/30 04:07:37;;;;;;;1.85;1.30;;;;;;;4.73;100.00;97720.63;4989972;28;20050;-65
2022/01/30 04:10:05;;;;;;;2.17;1.35;;;;;;;4.73;100.00;97720.63;4989976;28;20038;-64
2022/01/30 04:12:32;;;;;;;;;;;;;;;4.71;100.00;97704.66;4999132;28;20553;-64
2022/01/30 04:14:57;;;;;;;2.65;1.55;;;;;;;4.78;100.00;97713.19;4992349;28;19918;-65
2022/01/30 04:17:24;;;;;;;2.25;1.48;;;;;;;4.79;100.00;97717.53;4981984;28;20053;-64
2022/01/30 04:19:50;;;;;;;2.08;1.42;;;;;;;4.77;100.00;97727.88;4981637;28;20049;-65
2022/01/30 04:22:16;;;;;;;4.18;1.70;;;;;;;4.79;100.00;97741.94;4958388;28;20050;-65
2022/01/30 04:24:42;;;;;;;2.72;1.70;;;;;;;4.84;100.00;97746.44;4993522;28;20046;-65
2022/01/30 04:27:07;;;;;;;2.67;1.42;;;;;;;4.90;100.00;97737.13;4974214;28;20096;-66
2022/01/30 04:29:34;;;;;;;2.42;1.48;;;;;;;4.87;100.00;97739.63;4974064;28;20046;-66
2022/01/30 04:32:00;;;;;;;2.50;1.67;;;;;;;4.81;100.00;97730.78;4978641;28;20043;-66
2022/01/30 04:34:28;;;;;;;2.63;1.52;;;;;;;4.79;100.00;97738.44;4971186;28;20634;-66
2022/01/30 04:37:04;;;;;;;2.95;1.55;;;;;;;4.94;100.00;97724.53;4979674;28;20046;-66
2022/01/30 04:58:03;;;;;;;3.35;1.83;;;;;;;4.64;100.00;97749.59;4987834;28;20046;-65
2022/01/30 05:07:49;;;;;;;2.45;1.65;;;;;;;4.77;100.00;97749.59;4995437;28;20049;-67
2022/01/30 05:10:14;;;;;;;2.45;1.40;;;;;;;4.92;100.00;97747.66;4968394;28;20433;-66
2022/01/30 05:12:53;;;;;;;2.13;1.10;;;;;;;4.77;100.00;97737.91;4983412;28;20038;-67
2022/01/30 05:15:20;;;;;;;1.75;1.20;;;;;;;4.78;100.00;97745.75;4983123;28;20398;-66
2022/01/30 05:17:46;;;;;;;1.85;1.15;;;;;;;4.84;100.00;97738.31;4992059;28;20046;-66
2022/01/30 05:20:12;;;;;;;1.30;1.10;;;;;;;4.95;100.00;97749.75;4990481;28;20064;-66
2022/01/30 05:22:38;;;;;;;1.30;1.10;;;;;;;4.84;100.00;97743.75;4990862;28;20589;-66
2022/01/30 05:25:04;;;;;;;1.25;0.90;;;;;;;4.93;100.00;97746.53;4996760;28;20048;-65
2022/01/30 05:27:30;;;;;;;1.95;1.20;;;;;;;5.08;100.00;97756.31;5002991;28;20046;-64
2022/01/30 05:29:56;;;;;;;2.95;1.95;;;;;;;5.16;100.00;97750.13;5002371;28;20387;-65
2022/01/30 05:32:22;;;;;;;1.95;0.85;;;;;;;5.14;100.00;97750.44;4998518;28;20245;-65
2022/01/30 05:34:48;;;;;;;1.10;1.00;;;;;;;5.00;100.00;97748.84;4994608;28;20062;-65
2022/01/30 05:37:17;;;;;;;1.02;0.90;;;;;;;4.98;100.00;97747.25;4990174;28;20041;-65
2022/01/30 05:39:43;;;;;;;0.95;0.82;;;;;;;4.86;100.00;97748.88;4983210;28;20038;-65
2022/01/30 05:42:09;;;;;;;0.88;0.70;;;;;;;4.91;100.00;97755.00;4990936;28;20038;-65
2022/01/30 05:47:24;;;;;;;0.93;0.88;;;;;;;4.87;100.00;97773.00;4981714;28;20052;-65
2022/01/30 05:49:50;;;;;;;0.68;0.68;;;;;;;5.08;100.00;97767.16;4990169;28;20068;-65
2022/01/30 05:52:15;;;;;;;0.82;0.70;;;;;;;5.04;100.00;97775.13;4991549;28;20483;-68
2022/01/30 05:54:41;;;;;;;1.20;0.80;;;;;;;4.92;100.00;97770.19;4992672;28;20054;-66
2022/01/30 05:57:06;;;;;;;1.27;0.80;;;;;;;4.84;100.00;97775.53;4984797;28;20100;-65
2022/01/30 05:59:32;;;;;;;0.73;0.73;;;;;;;4.76;100.00;97780.53;5002535;28;20038;-66
2022/01/30 06:01:57;;;;;;;1.65;0.70;;;;;;;4.72;100.00;97774.13;4990238;28;20049;-66
2022/01/30 06:04:23;;;;;;;1.52;0.85;;;;;;;4.93;100.00;97774.53;4994013;28;20859;-67
2022/01/30 06:06:51;;;;;;;1.02;0.90;;;;;;;4.87;100.00;97772.22;4990884;28;20046;-67
2022/01/30 06:11:44;;;;;;;0.80;0.80;;;;;;;4.94;100.00;97773.41;4999277;28;20037;-66
2022/01/30 06:14:09;;;;;;;0.63;0.63;;;;;;;4.83;100.00;97769.28;4987247;28;20062;-66
2022/01/30 06:16:35;;;;;;;0.63;0.60;;;;;;;4.95;100.00;97764.16;4989129;28;20117;-64
2022/01/30 06:19:01;;;;;;;1.95;0.90;;;;;;;4.79;100.00;97771.81;5003358;28;20042;-66
2022/01/30 06:21:27;;;;;;;0.85;0.85;;;;;;;4.78;100.00;97772.09;4987880;28;20046;-67
2022/01/30 06:23:53;;;;;;;1.67;1.23;;;;;;;4.78;100.00;97780.25;4992456;28;20042;-65
2022/01/30 06:26:18;;;;;;;1.23;1.00;;;;;;;4.90;100.00;97785.19;4983934;28;20053;-65
2022/01/30 06:28:44;;;;;;;1.30;1.05;;;;;;;4.83;100.00;97787.50;5002337;28;20128;-66
2022/01/30 06:31:09;;;;;;;1.20;1.10;;;;;;;4.71;100.00;97788.78;4964862;28;20544;-68
2022/01/30 06:33:35;;;;;;;1.33;1.00;;;;;;;4.85;100.00;97785.28;4998142;28;20045;-65
2022/01/30 06:36:00;;;;;;;1.63;1.05;;;;;;;4.76;100.00;97782.47;4996784;28;20046;-66
2022/01/30 06:38:26;;;;;;;1.70;1.30;;;;;;;4.83;100.00;97780.16;4972605;28;20057;-65
2022/01/30 06:40:51;;;;;;;2.10;1.20;;;;;;;4.70;100.00;97787.19;4990773;28;20383;-66
2022/01/30 06:43:16;;;;;;;1.52;1.23;;;;;;;4.70;100.00;97789.91;4983740;28;20108;-67
2022/01/30 06:45:42;;;;;;;1.67;1.33;;;;;;;4.65;100.00;97786.50;4989604;28;21010;-66
2022/01/30 06:48:08;;;;;;;2.50;1.70;;;;;;;4.58;100.00;97803.97;4995004;28;20379;-65
2022/01/30 06:50:34;;;;;;;1.52;1.30;;;;;;;4.58;100.00;97795.81;4972372;28;20112;-66
2022/01/30 06:52:59;;;;;;;3.20;1.52;;;;;;;4.53;100.00;97798.63;5001021;28;20100;-66
2022/01/30 06:55:25;;;;;;;1.75;1.40;;;;;;;4.61;100.00;97802.56;4979620;28;20690;-66
2022/01/30 06:57:50;;;;;;;4.47;2.25;;;;;;;4.55;100.00;97814.59;4996937;28;20070;-65
2022/01/30 07:00:16;;;;;;;4.03;2.13;;;;;;;4.60;100.00;97825.38;4987331;28;20042;-65
2022/01/30 07:02:41;;;;;;;2.35;1.58;;;;;;;4.53;100.00;97825.75;4985256;28;20496;-66
2022/01/30 07:05:07;;;;;;;1.60;1.40;;;;;;;4.50;100.00;97834.50;4988046;28;20077;-66
2022/01/30 07:07:32;;;;;;;1.95;1.48;;;;;;;4.47;100.00;97839.72;5000515;28;20042;-65
2022/01/30 07:09:58;;;;;;;2.20;1.55;;;;;;;4.47;100.00;97835.09;5004884;28;20046;-66
2022/01/30 07:12:23;;;;;;;1.95;1.60;;;;;;;4.51;100.00;97830.69;4982255;28;20195;-66
2022/01/30 07:14:49;;;;;;;3.63;1.50;;;;;;;4.47;100.00;97829.69;5002300;28;20060;-66
2022/01/30 07:17:14;;;;;;;3.55;1.80;;;;;;;4.46;100.00;97835.41;4989268;28;20506;-66
2022/01/30 07:19:40;;;;;;;3.03;1.40;;;;;;;4.47;100.00;97845.16;4991982;28;20129;-64
2022/01/30 07:22:06;;;;;;;3.72;1.75;;;;;;;4.45;100.00;97848.16;4987785;28;20064;-64
2022/01/30 07:24:31;;;;;;;3.15;1.48;;;;;;;4.50;100.00;97834.50;4992416;28;20057;-64
2022/01/30 07:26:57;;;;;;;1.77;1.40;;;;;;;4.51;100.00;97854.31;4996429;28;20562;-64
2022/01/30 07:29:22;;;;;;;1.95;1.50;;;;;;;4.70;100.00;97854.22;4989768;28;20144;-63
2022/01/30 07:31:48;;;;;;;4.72;1.38;;;;;;;4.75;100.00;97856.84;4978996;28;20046;-65
2022/01/30 07:34:13;;;;;;;1.80;1.55;;;;;;;4.79;100.00;97853.25;4990820;28;20077;-65
2022/01/30 07:36:39;;;;;;;2.80;1.42;;;;;;;4.84;100.00;97857.75;4995908;28;20437;-65
2022/01/30 07:39:07;;;;;;;3.13;1.70;;;;;;;4.81;100.00;97861.09;4988313;28;20104;-65
2022/01/30 07:41:33;;;;;;;2.10;1.40;;;;;;;4.90;100.00;97867.41;4997503;28;20456;-64
2022/01/30 07:44:04;;;;;;;3.17;1.35;;;;;;;4.74;100.00;97864.19;4983704;28;20050;-65
2022/01/30 07:46:30;;;;;;;1.45;1.30;;;;;;;4.64;100.00;97858.94;4996960;28;21913;-66
2022/01/30 07:48:56;;;;;;;1.60;1.30;;;;;;;4.53;100.00;97865.66;4986855;28;20050;-66
2022/01/30 07:51:22;;;;;;;2.70;2.25;;;;;;;4.60;100.00;97856.00;4994835;28;20541;-65
2022/01/30 07:53:47;;;;;;;1.77;1.13;;;;;;;4.56;100.00;97852.31;4991989;28;20371;-65
2022/01/30 07:56:12;;;;;;;2.42;1.65;;;;;;;4.61;100.00;97870.41;4990785;28;20100;-66
2022/01/30 07:58:38;;;;;;;2.30;1.48;;;;;;;4.59;100.00;97859.03;4995943;28;20558;-65
2022/01/30 08:01:04;;;;;;;1.83;1.50;;;;;;;4.58;100.00;97863.66;4991002;28;20108;-66
2022/01/30 08:03:30;;;;;;;2.70;1.60;;;;;;;4.62;100.00;97868.50;4989239;28;20057;-65
2022/01/30 08:05:55;;;;;;;2.42;1.60;;;;;;;4.80;100.00;97870.31;4999918;28;20482;-65
2022/01/30 08:08:20;;;;;;;1.95;1.55;;;;;;;4.96;100.00;97866.22;4994015;28;22613;-66
2022/01/30 08:10:46;;;;;;;2.55;1.58;;;;;;;4.94;100.00;97867.63;5003253;28;20041;-66
2022/01/30 08:13:11;;;;;;;2.35;1.65;;;;;;;5.16;100.00;97875.84;4991468;28;20046;-66
2022/01/30 08:15:37;;;;;;;3.00;1.90;;;;;;;5.40;100.00;97885.69;4995983;28;20046;-66
2022/01/30 08:18:02;;;;;;;5.05;2.22;;;;;;;5.48;100.00;97876.06;4942291;28;1211474;-66
2022/01/30 08:20:28;;;;;;;5.28;2.85;;;;;;;5.83;100.00;97876.38;4960076;28;20103;-67
2022/01/30 08:22:55;;;;;;;5.32;2.88;;;;;;;6.21;100.00;97882.31;4971545;28;20034;-66
2022/01/30 08:25:23;;;;;;;18.45;8.52;;;;;;;6.27;100.00;97888.44;4992829;28;20056;-66
2022/01/30 08:27:50;;;;;;;7.43;3.92;;;;;;;6.66;100.00;97878.75;5000066;28;20073;-66
2022/01/30 08:30:15;;;;;;;2.30;1.58;;;;;;;6.69;100.00;97876.19;4988962;28;20046;-66
2022/01/30 08:32:43;;;;;;;2.65;1.40;;;;;;;6.66;100.00;97874.13;4981772;28;20104;-65
2022/01/30 08:35:09;;;;;;;1.05;0.93;;;;;;;6.87;100.00;97879.81;4989363;28;20380;-66
2022/01/30 08:37:36;;;;;;;1.60;1.20;;;;;;;6.88;100.00;97875.97;4997032;28;20042;-66
2022/01/30 08:40:07;;;;;;;2.95;1.45;;;;;;;7.03;100.00;97877.47;4993604;28;20406;-66
2022/01/30 08:42:33;;;;;;;1.30;1.17;;;;;;;7.26;100.00;97885.59;5000157;28;20042;-67
2022/01/30 08:44:58;;;;;;;2.03;1.27;;;;;;;7.32;100.00;97884.31;5000508;28;20053;-67
2022/01/30 08:47:24;;;;;;;2.60;1.45;;;;;;;6.90;100.00;97875.69;4985479;28;20066;-67
2022/01/30 08:49:49;;;;;;;2.05;1.83;;;;;;;6.96;100.00;97870.88;4986690;28;20044;-67
2022/01/30 08:52:16;;;;;;;1.70;1.25;;;;;;;7.05;100.00;97869.00;4992704;28;20051;-66
2022/01/30 08:54:42;;;;;;;1.25;0.90;;;;;;;7.62;100.00;97879.09;5001053;28;20042;-65
2022/01/30 08:57:07;;;;;;;1.15;0.90;;;;;;;7.70;100.00;97877.50;4987207;28;20057;-66
2022/01/30 08:59:33;;;;;;;1.42;0.80;;;;;;;8.29;96.56;97877.84;5000012;28;20042;-66
2022/01/30 09:01:58;;;;;;;1.10;0.90;;;;;;;8.12;94.74;97880.56;4994134;28;20499;-66
2022/01/30 09:04:24;;;;;;;1.02;0.90;;;;;;;7.87;100.00;97874.81;4994647;28;20303;-67
2022/01/30 09:06:50;;;;;;;1.92;1.00;;;;;;;7.85;100.00;97877.06;5001248;28;20096;-66
2022/01/30 09:09:15;;;;;;;2.75;1.27;;;;;;;8.69;94.82;97872.16;4987742;28;20129;-66
2022/01/30 09:11:40;;;;;;;1.67;0.77;;;;;;;8.64;90.41;97855.16;4998647;28;20072;-66
2022/01/30 09:14:07;;;;;;;1.80;1.00;;;;;;;8.60;90.61;97860.47;4999012;28;20044;-67
2022/01/30 09:16:33;;;;;;;0.88;0.77;;;;;;;8.08;93.50;97864.03;5000512;28;20091;-67
2022/01/30 09:18:58;;;;;;;1.15;0.90;;;;;;;7.52;98.15;97849.41;4984884;28;20042;-66
2022/01/30 09:21:24;;;;;;;8.35;4.13;;;;;;;7.11;100.00;97842.41;4994866;28;20827;-66
2022/01/30 09:23:49;;;;;;;1.40;1.08;;;;;;;7.04;100.00;97842.88;4995416;28;20038;-66
2022/01/30 09:26:14;;;;;;;2.60;1.00;;;;;;;7.10;100.00;97840.81;4989777;28;20084;-67
2022/01/30 09:28:40;;;;;;;0.93;0.88;;;;;;;7.52;98.17;97841.22;4999261;28;20589;-67
2022/01/30 09:31:05;;;;;;;2.53;1.05;;;;;;;7.91;98.09;97840.28;4988404;28;20137;-66
2022/01/30 09:33:30;;;;;;;2.08;1.05;;;;;;;8.34;95.37;97828.53;4993033;28;20034;-67
2022/01/30 09:35:56;;;;;;;1.77;0.98;;;;;;;7.94;96.97;97830.66;5007372;28;20053;-66
2022/01/30 09:38:23;;;;;;;1.35;1.00;;;;;;;8.16;95.74;97832.44;4994265;28;20557;-66
2022/01/30 09:40:53;;;;;;;0.93;0.80;;;;;;;8.46;93.55;97827.88;5004198;28;20049;-67
2022/01/30 09:43:19;;;;;;;1.00;0.70;;;;;;;8.85;90.48;97823.28;4997130;28;20046;-67
2022/01/30 09:45:45;;;;;;;0.80;0.77;;;;;;;8.66;90.05;97837.34;5003708;28;20090;-66
2022/01/30 09:48:12;;;;;;;1.50;0.80;;;;;;;8.30;89.83;97834.97;4982737;28;20046;-66
2022/01/30 09:50:40;;;;;;;0.73;0.60;;;;;;;8.17;92.29;97844.94;5002834;28;20128;-66
2022/01/30 09:53:06;;;;;;;0.90;0.70;;;;;;;8.10;93.07;97842.69;4995920;28;20116;-66
2022/01/30 09:55:31;;;;;;;1.13;0.85;;;;;;;7.82;93.62;97840.28;5003249;28;20052;-66
2022/01/30 09:57:57;;;;;;;1.08;0.80;;;;;;;7.40;94.27;97845.38;5003830;28;20442;-67
2022/01/30 10:00:22;;;;;;;0.90;0.80;;;;;;;7.77;92.94;97856.00;4989779;28;20064;-66
2022/01/30 10:02:48;;;;;;;1.05;0.70;;;;;;;8.50;88.96;97855.34;4994041;28;20044;-65
2022/01/30 10:05:15;;;;;;;1.10;0.70;;;;;;;9.28;85.19;97854.28;4978033;28;20064;-66
2022/01/30 10:07:45;;;;;;;1.10;0.70;;;;;;;10.20;81.68;97845.25;4999149;28;20045;-66
2022/01/30 10:10:13;;;;;;;1.08;0.63;;;;;;;10.68;77.39;97852.06;4986786;28;20572;-67
2022/01/30 10:12:58;;;;;;;1.08;0.75;;;;;;;10.96;74.89;97850.59;4999338;28;20046;-68
2022/01/30 10:15:24;;;;;;;0.70;0.60;;;;;;;11.38;68.25;97853.13;4996483;28;20824;-67
2022/01/30 10:17:50;;;;;;;2.85;0.90;;;;;;;11.15;73.23;97845.38;4982347;28;20168;-67
2022/01/30 10:20:17;;;;;;;1.95;0.90;;;;;;;11.17;75.75;97842.28;4990601;28;20103;-68
2022/01/30 10:22:49;;;;;;;4.53;0.77;;;;;;;11.78;69.48;97853.22;4978730;28;20263;-68
2022/01/30 10:25:20;;;;;;;3.00;1.00;;;;;;;11.39;72.03;97841.03;4970807;28;20069;-67
2022/01/30 10:27:46;;;;;;;1.83;0.95;;;;;;;10.56;76.66;97848.47;4998612;28;20390;-67
2022/01/30 10:30:12;;;;;;;3.42;1.20;;;;;;;10.53;77.78;97852.69;4984003;28;20042;-63
2022/01/30 10:32:37;;;;;;;1.08;0.88;;;;;;;10.47;76.37;97846.63;4990500;28;20042;-67
2022/01/30 10:35:04;;;;;;;1.80;1.02;;;;;;;10.48;78.18;97844.69;5000663;28;20423;-64
2022/01/30 10:37:30;;;;;;;1.25;0.90;;;;;;;10.11;79.75;97839.84;5000352;28;20046;-66
2022/01/30 10:40:11;;;;;;;1.15;0.90;;;;;;;9.82;79.70;97829.78;4988873;28;20053;-67
2022/01/30 10:42:43;;;;;;;1.48;1.02;;;;;;;9.56;79.93;97833.50;5001808;28;20104;-66
2022/01/30 10:45:18;;;;;;;1.45;1.05;;;;;;;9.32;82.61;97830.59;4994653;28;20042;-63
2022/01/30 10:47:44;;;;;;;1.10;0.93;;;;;;;9.84;79.03;97829.44;4974839;28;20446;-67
2022/01/30 10:50:14;;;;;;;2.25;1.30;;;;;;;9.69;77.95;97826.19;4994424;28;20156;-66
2022/01/30 10:52:55;;;;;;;1.95;1.10;;;;;;;9.07;80.83;97808.53;4999184;28;20042;-66
2022/01/30 10:55:41;;;;;;;2.00;1.20;;;;;;;8.94;81.84;97813.09;4999289;28;20052;-66
2022/01/30 10:58:09;;;;;;;1.73;1.13;;;;;;;9.24;80.50;97802.19;4992243;28;20061;-66
2022/01/30 11:00:43;;;;;;;2.40;1.30;;;;;;;9.04;80.35;97797.47;4997920;28;20038;-66
2022/01/30 11:03:29;;;;;;;3.47;1.20;;;;;;;9.16;80.06;97801.13;4981666;28;20049;-66
2022/01/30 11:05:59;;;;;;;2.67;1.50;;;;;;;9.17;79.06;97797.25;4980064;28;20034;-66
2022/01/30 11:08:27;;;;;;;1.88;1.05;;;;;;;9.50;75.72;97798.47;4989444;28;20053;-66
2022/01/30 11:11:18;;;;;;;2.38;1.15;;;;;;;9.54;75.69;97808.44;5000660;28;20132;-67
2022/01/30 11:17:02;;;;;;;1.90;1.10;;;;;;;9.76;73.65;97792.81;4969501;28;20066;-67
2022/01/30 11:19:30;;;;;;;2.78;1.20;;;;;;;9.71;73.93;97796.56;4983148;28;20502;-66
2022/01/30 11:22:07;;;;;;;2.03;1.20;;;;;;;10.41;71.94;97795.16;4998792;28;20386;-67
2022/01/30 11:24:44;;;;;;;2.78;1.38;;;;;;;10.41;71.08;97782.25;4987434;28;20046;-67
2022/01/30 11:27:10;;;;;;;2.95;1.23;;;;;;;10.98;67.79;97783.31;4983868;28;20107;-66
2022/01/30 11:29:39;;;;;;;4.15;1.10;;;;;;;10.57;68.32;97785.13;4999457;28;20040;-67
2022/01/30 11:32:06;;;;;;;1.65;0.95;;;;;;;10.54;67.56;97783.06;4996266;28;20052;-67
2022/01/30 11:34:43;;;;;;;3.78;1.17;;;;;;;10.71;66.92;97793.03;5001428;28;20104;-68
2022/01/30 11:37:11;;;;;;;1.58;0.88;;;;;;;10.57;65.95;97795.28;4967799;28;20104;-66
2022/01/30 11:39:45;;;;;;;3.33;1.30;;;;;;;10.32;67.18;97793.28;5000816;28;20471;-66
2022/01/30 11:42:13;;;;;;;2.70;0.80;;;;;;;10.63;66.34;97799.41;4994158;28;20034;-66
2022/01/30 11:44:44;;;;;;;2.70;1.00;;;;;;;11.02;65.69;97797.16;4983891;28;20038;-67
2022/01/30 11:47:09;;;;;;;2.92;1.02;;;;;;;10.69;65.56;97798.03;4995267;28;20099;-66
2022/01/30 11:49:55;;;;;;;4.03;1.00;;;;;;;10.79;64.72;97796.81;5000495;28;20140;-65
2022/01/30 11:52:51;;;;;;;2.75;0.90;;;;;;;10.51;65.33;97787.31;4989267;28;20442;-66
2022/01/30 11:55:43;;;;;;;3.92;1.00;;;;;;;11.02;63.31;97776.03;4984717;28;20046;-65
2022/01/30 11:58:34;;;;;;;3.00;1.40;;;;;;;10.76;64.07;97775.56;4991086;28;20088;-67
2022/01/30 12:01:02;;;;;;;3.05;0.98;;;;;;;11.47;62.99;97766.03;4958288;28;20068;-66
2022/01/30 12:03:29;;;;;;;3.03;1.13;;;;;;;11.71;61.28;97759.69;4958666;28;20046;-67
2022/01/30 12:05:56;;;;;;;5.65;0.98;;;;;;;12.27;58.89;97758.91;4962005;28;20391;-66
2022/01/30 12:08:44;;;;;;;2.05;0.82;;;;;;;12.00;58.52;97755.81;4956792;28;20477;-67
2022/01/30 12:11:35;;;;;;;1.60;0.80;;;;;;;12.92;53.48;97744.81;4990817;28;20042;-67
2022/01/30 12:14:21;;;;;;;2.47;0.73;;;;;;;12.14;56.64;97733.44;4961880;28;20042;-66
2022/01/30 12:16:49;;;;;;;3.55;1.13;;;;;;;11.56;58.67;97736.53;4968609;28;20046;-66
2022/01/30 12:22:15;;;;;;;2.67;1.00;;;;;;;11.53;57.43;97728.97;4997709;28;20199;-64
2022/01/30 12:24:42;;;;;;;3.20;1.27;;;;;;;12.12;57.03;97730.25;4999753;28;20045;-65
2022/01/30 12:27:07;;;;;;;7.20;1.50;;;;;;;12.05;57.19;97735.56;4987637;28;20065;-65
2022/01/30 12:29:38;;;;;;;3.08;0.93;;;;;;;12.14;56.46;97718.94;5000388;28;20049;-65
2022/01/30 12:32:22;;;;;;;1.98;0.85;;;;;;;12.56;54.81;97718.41;4995418;28;20483;-64
2022/01/30 12:34:57;;;;;;;2.38;1.08;;;;;;;12.12;55.66;97719.28;5000684;28;20079;-66
2022/01/30 12:37:25;;;;;;;4.65;1.13;;;;;;;12.09;55.98;97708.19;4994743;28;20245;-66
2022/01/30 12:39:52;;;;;;;3.08;0.73;;;;;;;11.79;56.89;97703.03;4983503;28;20073;-66
2022/01/30 12:42:18;;;;;;;2.38;0.98;;;;;;;11.80;55.66;97697.19;4986517;28;20064;-65
2022/01/30 12:44:45;;;;;;;1.80;0.88;;;;;;;12.19;54.55;97694.75;5000188;28;20446;-67
2022/01/30 12:47:11;;;;;;;2.65;0.90;;;;;;;12.19;52.42;97693.94;4995408;28;20041;-67